sensor_id;sensor_type;location;lat;lon;timestamp;temperature;humidity
4548;DHT22;2286;51.570;7.090;2023-12-28T00:00:07;8.00;99.90
4548;DHT22;2286;51.570;7.090;2023-12-28T00:02:35;8.00;1.00
4548;DHT22;2286;51.570;7.090;2023-12-28T00:05:02;8.00;1.00
4548;DHT22;2286;51.570;7.090;2023-12-28T00:07:29;8.00;1.00
4548;DHT22;2286;51.570;7.090;2023-12-28T00:09:56;8.00;99.90
4548;DHT22;2286;51.570;7.090;2023-12-28T00:12:23;8.00;99.90
4548;DHT22;2286;51.570;7.090;2023-12-28T00:14:50;8.00;1.00
4548;DHT22;2286;51.570;7.090;2023-12-28T00:17:17;8.00;1.00
4548;DHT22;2286;51.570;7.090;2023-12-28T00:19:45;8.00;6.80
4548;DHT22;2286;51.570;7.090;2023-12-28T00:22:12;8.00;99.90
4548;DHT22;2286;51.570;7.090;2023-12-28T00:24:39;8.10;99.90
4548;DHT22;2286;51.570;7.090;2023-12-28T00:27:06;8.10;99.90
4548;DHT22;2286;51.570;7.090;2023-12-28T00:29:33;8.00;99.90
4548;DHT22;2286;51.570;7.090;2023-12-28T00:32:00;8.20;1.00
4548;DHT22;2286;51.570;7.090;2023-12-28T00:34:26;8.20;99.90
4548;DHT22;2286;51.570;7.090;2023-12-28T00:36:54;8.20;99.90
4548;DHT22;2286;51.570;7.090;2023-12-28T00:39:21;8.20;99.90
4548;DHT22;2286;51.570;7.090;2023-12-28T00:41:48;8.30;99.90
4548;DHT22;2286;51.570;7.090;2023-12-28T00:44:15;8.30;99.90
4548;DHT22;2286;51.570;7.090;2023-12-28T00:46:42;8.30;1.00
4548;DHT22;2286;51.570;7.090;2023-12-28T00:49:08;8.40;1.00
4548;DHT22;2286;51.570;7.090;2023-12-28T00:51:35;8.40;99.90
4548;DHT22;2286;51.570;7.090;2023-12-28T00:54:03;8.40;99.90
4548;DHT22;2286;51.570;7.090;2023-12-28T00:56:30;8.50;99.90
4548;DHT22;2286;51.570;7.090;2023-12-28T00:58:57;8.50;99.90
4548;DHT22;2286;51.570;7.090;2023-12-28T01:01:23;8.50;28.80
4548;DHT22;2286;51.570;7.090;2023-12-28T01:03:50;8.50;1.00
4548;DHT22;2286;51.570;7.090;2023-12-28T01:06:17;8.50;1.00
4548;DHT22;2286;51.570;7.090;2023-12-28T01:08:44;8.60;99.90
4548;DHT22;2286;51.570;7.090;2023-12-28T01:11:12;8.60;99.90
4548;DHT22;2286;51.570;7.090;2023-12-28T01:13:39;8.70;1.00
4548;DHT22;2286;51.570;7.090;2023-12-28T01:16:06;8.80;99.90
4548;DHT22;2286;51.570;7.090;2023-12-28T01:18:33;8.80;99.90
4548;DHT22;2286;51.570;7.090;2023-12-28T01:20:59;8.90;1.00
4548;DHT22;2286;51.570;7.090;2023-12-28T01:23:26;9.00;99.90
4548;DHT22;2286;51.570;7.090;2023-12-28T01:25:55;8.90;99.90
4548;DHT22;2286;51.570;7.090;2023-12-28T01:28:23;9.00;99.90
4548;DHT22;2286;51.570;7.090;2023-12-28T01:30:50;8.90;99.90
4548;DHT22;2286;51.570;7.090;2023-12-28T01:33:17;8.90;99.90
4548;DHT22;2286;51.570;7.090;2023-12-28T01:35:43;9.00;99.90
4548;DHT22;2286;51.570;7.090;2023-12-28T01:38:10;9.00;99.90
4548;DHT22;2286;51.570;7.090;2023-12-28T01:40:37;9.00;99.90
4548;DHT22;2286;51.570;7.090;2023-12-28T01:43:04;9.10;99.90
4548;DHT22;2286;51.570;7.090;2023-12-28T01:45:32;9.10;44.40
4548;DHT22;2286;51.570;7.090;2023-12-28T01:47:59;9.10;42.90
4548;DHT22;2286;51.570;7.090;2023-12-28T01:50:26;9.20;68.20
4548;DHT22;2286;51.570;7.090;2023-12-28T01:52:55;9.20;1.00
4548;DHT22;2286;51.570;7.090;2023-12-28T01:55:22;9.30;1.00
4548;DHT22;2286;51.570;7.090;2023-12-28T01:57:49;9.30;1.00
4548;DHT22;2286;51.570;7.090;2023-12-28T02:00:16;9.30;1.00
4548;DHT22;2286;51.570;7.090;2023-12-28T02:02:45;9.20;82.30
4548;DHT22;2286;51.570;7.090;2023-12-28T02:05:12;9.30;1.00
4548;DHT22;2286;51.570;7.090;2023-12-28T02:07:39;9.30;1.00
4548;DHT22;2286;51.570;7.090;2023-12-28T02:10:06;9.30;1.00
4548;DHT22;2286;51.570;7.090;2023-12-28T02:12:33;9.30;1.00
4548;DHT22;2286;51.570;7.090;2023-12-28T02:15:00;9.30;1.00
4548;DHT22;2286;51.570;7.090;2023-12-28T02:17:30;9.40;1.00
4548;DHT22;2286;51.570;7.090;2023-12-28T02:20:01;9.40;1.00
4548;DHT22;2286;51.570;7.090;2023-12-28T02:22:31;9.40;1.00
4548;DHT22;2286;51.570;7.090;2023-12-28T02:25:09;9.40;1.00
4548;DHT22;2286;51.570;7.090;2023-12-28T02:27:39;9.40;1.00
4548;DHT22;2286;51.570;7.090;2023-12-28T02:30:08;9.40;1.00
4548;DHT22;2286;51.570;7.090;2023-12-28T02:32:44;9.50;1.00
4548;DHT22;2286;51.570;7.090;2023-12-28T02:35:20;9.50;1.00
4548;DHT22;2286;51.570;7.090;2023-12-28T02:37:52;9.40;1.00
4548;DHT22;2286;51.570;7.090;2023-12-28T02:40:22;9.40;1.00
4548;DHT22;2286;51.570;7.090;2023-12-28T02:42:50;9.40;1.00
4548;DHT22;2286;51.570;7.090;2023-12-28T02:45:17;9.40;1.00
4548;DHT22;2286;51.570;7.090;2023-12-28T02:47:44;9.40;1.00
4548;DHT22;2286;51.570;7.090;2023-12-28T02:50:11;9.40;1.00
4548;DHT22;2286;51.570;7.090;2023-12-28T02:52:38;9.50;1.00
4548;DHT22;2286;51.570;7.090;2023-12-28T02:55:06;9.40;1.00
4548;DHT22;2286;51.570;7.090;2023-12-28T02:57:34;9.40;1.00
4548;DHT22;2286;51.570;7.090;2023-12-28T03:00:05;9.40;1.00
4548;DHT22;2286;51.570;7.090;2023-12-28T03:02:33;9.40;1.00
4548;DHT22;2286;51.570;7.090;2023-12-28T03:04:59;9.30;1.00
4548;DHT22;2286;51.570;7.090;2023-12-28T03:07:26;9.20;1.00
4548;DHT22;2286;51.570;7.090;2023-12-28T03:09:53;9.20;1.00
4548;DHT22;2286;51.570;7.090;2023-12-28T03:12:19;9.20;53.60
4548;DHT22;2286;51.570;7.090;2023-12-28T03:14:47;9.30;1.00
4548;DHT22;2286;51.570;7.090;2023-12-28T03:17:14;9.30;1.00
4548;DHT22;2286;51.570;7.090;2023-12-28T03:19:41;9.40;1.00
4548;DHT22;2286;51.570;7.090;2023-12-28T03:22:08;9.40;1.00
4548;DHT22;2286;51.570;7.090;2023-12-28T03:24:36;9.40;1.00
4548;DHT22;2286;51.570;7.090;2023-12-28T03:27:03;9.40;1.00
4548;DHT22;2286;51.570;7.090;2023-12-28T03:29:31;9.40;1.00
4548;DHT22;2286;51.570;7.090;2023-12-28T03:31:59;9.40;1.00
4548;DHT22;2286;51.570;7.090;2023-12-28T03:34:27;9.40;1.00
4548;DHT22;2286;51.570;7.090;2023-12-28T03:36:55;9.40;1.00
4548;DHT22;2286;51.570;7.090;2023-12-28T03:39:23;9.40;1.00
4548;DHT22;2286;51.570;7.090;2023-12-28T03:41:50;9.50;1.00
4548;DHT22;2286;51.570;7.090;2023-12-28T03:44:18;9.50;1.00
4548;DHT22;2286;51.570;7.090;2023-12-28T03:46:46;9.40;1.00
4548;DHT22;2286;51.570;7.090;2023-12-28T03:49:16;9.40;1.00
4548;DHT22;2286;51.570;7.090;2023-12-28T03:51:43;9.30;1.00
4548;DHT22;2286;51.570;7.090;2023-12-28T03:54:11;9.40;1.00
4548;DHT22;2286;51.570;7.090;2023-12-28T03:56:38;9.40;1.00
4548;DHT22;2286;51.570;7.090;2023-12-28T03:59:06;9.40;1.00
4548;DHT22;2286;51.570;7.090;2023-12-28T04:01:33;9.40;1.00
4548;DHT22;2286;51.570;7.090;2023-12-28T04:04:00;9.50;1.00
4548;DHT22;2286;51.570;7.090;2023-12-28T04:06:28;9.50;1.00
4548;DHT22;2286;51.570;7.090;2023-12-28T04:08:56;9.40;1.00
4548;DHT22;2286;51.570;7.090;2023-12-28T04:11:23;9.50;1.00
4548;DHT22;2286;51.570;7.090;2023-12-28T04:13:50;9.50;1.00
4548;DHT22;2286;51.570;7.090;2023-12-28T04:16:17;9.50;1.00
4548;DHT22;2286;51.570;7.090;2023-12-28T04:18:44;9.50;1.00
4548;DHT22;2286;51.570;7.090;2023-12-28T04:21:12;9.50;1.00
4548;DHT22;2286;51.570;7.090;2023-12-28T04:23:41;9.50;1.00
4548;DHT22;2286;51.570;7.090;2023-12-28T04:26:08;9.60;1.00
4548;DHT22;2286;51.570;7.090;2023-12-28T04:28:35;9.60;1.00
4548;DHT22;2286;51.570;7.090;2023-12-28T04:31:03;9.60;99.90
4548;DHT22;2286;51.570;7.090;2023-12-28T04:33:31;9.70;99.90
4548;DHT22;2286;51.570;7.090;2023-12-28T04:36:00;9.70;99.90
4548;DHT22;2286;51.570;7.090;2023-12-28T04:38:29;9.80;99.90
4548;DHT22;2286;51.570;7.090;2023-12-28T04:40:58;9.80;99.90
4548;DHT22;2286;51.570;7.090;2023-12-28T04:43:24;9.90;99.90
4548;DHT22;2286;51.570;7.090;2023-12-28T04:45:51;9.80;99.90
4548;DHT22;2286;51.570;7.090;2023-12-28T04:48:18;9.90;99.90
4548;DHT22;2286;51.570;7.090;2023-12-28T04:50:47;9.90;82.30
4548;DHT22;2286;51.570;7.090;2023-12-28T04:53:14;9.90;9.60
4548;DHT22;2286;51.570;7.090;2023-12-28T04:55:41;9.90;9.30
4548;DHT22;2286;51.570;7.090;2023-12-28T04:58:10;9.80;29.10
4548;DHT22;2286;51.570;7.090;2023-12-28T05:00:38;9.70;99.90
4548;DHT22;2286;51.570;7.090;2023-12-28T05:03:05;9.70;99.90
4548;DHT22;2286;51.570;7.090;2023-12-28T05:05:32;9.70;99.90
4548;DHT22;2286;51.570;7.090;2023-12-28T05:07:59;9.90;1.00
4548;DHT22;2286;51.570;7.090;2023-12-28T05:10:26;9.90;1.00
4548;DHT22;2286;51.570;7.090;2023-12-28T05:12:53;9.90;1.00
4548;DHT22;2286;51.570;7.090;2023-12-28T05:15:22;9.90;1.00
4548;DHT22;2286;51.570;7.090;2023-12-28T05:17:49;9.90;1.00
4548;DHT22;2286;51.570;7.090;2023-12-28T05:20:16;9.90;1.00
4548;DHT22;2286;51.570;7.090;2023-12-28T05:22:44;9.90;1.00
4548;DHT22;2286;51.570;7.090;2023-12-28T05:25:11;9.90;1.00
4548;DHT22;2286;51.570;7.090;2023-12-28T05:27:38;10.00;1.00
4548;DHT22;2286;51.570;7.090;2023-12-28T05:30:08;10.00;1.00
4548;DHT22;2286;51.570;7.090;2023-12-28T05:32:37;9.90;1.00
4548;DHT22;2286;51.570;7.090;2023-12-28T05:35:05;10.00;1.00
4548;DHT22;2286;51.570;7.090;2023-12-28T05:37:32;10.00;1.00
4548;DHT22;2286;51.570;7.090;2023-12-28T05:39:59;10.00;1.00
4548;DHT22;2286;51.570;7.090;2023-12-28T05:42:26;10.10;1.00
4548;DHT22;2286;51.570;7.090;2023-12-28T05:44:53;10.10;1.00
4548;DHT22;2286;51.570;7.090;2023-12-28T05:47:20;10.10;99.90
4548;DHT22;2286;51.570;7.090;2023-12-28T05:49:49;10.20;99.90
4548;DHT22;2286;51.570;7.090;2023-12-28T05:52:16;10.10;99.90
4548;DHT22;2286;51.570;7.090;2023-12-28T05:54:44;10.10;99.90
4548;DHT22;2286;51.570;7.090;2023-12-28T05:57:11;10.00;1.00
4548;DHT22;2286;51.570;7.090;2023-12-28T05:59:38;10.20;99.90
4548;DHT22;2286;51.570;7.090;2023-12-28T06:02:06;10.20;99.90
4548;DHT22;2286;51.570;7.090;2023-12-28T06:04:33;10.20;99.90
4548;DHT22;2286;51.570;7.090;2023-12-28T06:07:03;10.20;99.90
4548;DHT22;2286;51.570;7.090;2023-12-28T06:09:30;10.10;99.90
4548;DHT22;2286;51.570;7.090;2023-12-28T06:11:57;10.10;99.90
4548;DHT22;2286;51.570;7.090;2023-12-28T06:14:24;10.10;99.90
4548;DHT22;2286;51.570;7.090;2023-12-28T06:16:51;10.10;99.90
4548;DHT22;2286;51.570;7.090;2023-12-28T06:19:22;10.10;99.90
4548;DHT22;2286;51.570;7.090;2023-12-28T06:21:49;10.20;99.90
4548;DHT22;2286;51.570;7.090;2023-12-28T06:24:17;10.20;99.90
4548;DHT22;2286;51.570;7.090;2023-12-28T06:26:44;10.20;99.90
4548;DHT22;2286;51.570;7.090;2023-12-28T06:29:11;10.20;99.90
4548;DHT22;2286;51.570;7.090;2023-12-28T06:31:39;10.20;99.90
4548;DHT22;2286;51.570;7.090;2023-12-28T06:34:06;10.20;99.90
4548;DHT22;2286;51.570;7.090;2023-12-28T06:36:33;10.20;99.90
4548;DHT22;2286;51.570;7.090;2023-12-28T06:39:01;10.20;99.90
4548;DHT22;2286;51.570;7.090;2023-12-28T06:41:29;10.10;99.90
4548;DHT22;2286;51.570;7.090;2023-12-28T06:43:56;10.10;99.90
4548;DHT22;2286;51.570;7.090;2023-12-28T06:46:23;10.10;99.90
4548;DHT22;2286;51.570;7.090;2023-12-28T06:48:50;10.10;99.90
4548;DHT22;2286;51.570;7.090;2023-12-28T06:51:18;10.10;99.90
4548;DHT22;2286;51.570;7.090;2023-12-28T06:53:45;10.10;99.90
4548;DHT22;2286;51.570;7.090;2023-12-28T06:56:12;10.10;99.90
4548;DHT22;2286;51.570;7.090;2023-12-28T06:58:41;10.00;99.90
4548;DHT22;2286;51.570;7.090;2023-12-28T07:01:08;10.00;99.90
4548;DHT22;2286;51.570;7.090;2023-12-28T07:03:35;10.00;99.90
4548;DHT22;2286;51.570;7.090;2023-12-28T07:06:02;10.00;99.90
4548;DHT22;2286;51.570;7.090;2023-12-28T07:08:30;10.10;99.90
4548;DHT22;2286;51.570;7.090;2023-12-28T07:10:57;10.10;99.90
4548;DHT22;2286;51.570;7.090;2023-12-28T07:13:24;10.10;66.80
4548;DHT22;2286;51.570;7.090;2023-12-28T07:15:52;10.20;82.00
4548;DHT22;2286;51.570;7.090;2023-12-28T07:18:20;10.10;74.10
4548;DHT22;2286;51.570;7.090;2023-12-28T07:20:47;10.10;92.70
4548;DHT22;2286;51.570;7.090;2023-12-28T07:23:14;10.10;93.10
4548;DHT22;2286;51.570;7.090;2023-12-28T07:25:41;10.00;96.60
4548;DHT22;2286;51.570;7.090;2023-12-28T07:28:08;10.00;97.60
4548;DHT22;2286;51.570;7.090;2023-12-28T07:30:36;10.10;76.50
4548;DHT22;2286;51.570;7.090;2023-12-28T07:33:05;10.10;98.90
4548;DHT22;2286;51.570;7.090;2023-12-28T07:35:32;10.10;85.60
4548;DHT22;2286;51.570;7.090;2023-12-28T07:37:59;10.10;61.70
4548;DHT22;2286;51.570;7.090;2023-12-28T07:40:26;10.00;56.30
4548;DHT22;2286;51.570;7.090;2023-12-28T07:42:53;10.10;36.70
4548;DHT22;2286;51.570;7.090;2023-12-28T07:45:20;10.10;19.90
4548;DHT22;2286;51.570;7.090;2023-12-28T07:47:49;10.20;19.60
4548;DHT22;2286;51.570;7.090;2023-12-28T07:50:18;10.20;1.00
4548;DHT22;2286;51.570;7.090;2023-12-28T07:52:46;10.30;1.00
4548;DHT22;2286;51.570;7.090;2023-12-28T07:55:12;10.30;1.00
4548;DHT22;2286;51.570;7.090;2023-12-28T07:57:39;10.30;1.00
4548;DHT22;2286;51.570;7.090;2023-12-28T08:00:08;10.30;1.00
4548;DHT22;2286;51.570;7.090;2023-12-28T08:02:35;10.30;1.00
4548;DHT22;2286;51.570;7.090;2023-12-28T08:05:02;10.40;1.00
4548;DHT22;2286;51.570;7.090;2023-12-28T08:07:31;10.40;1.00
4548;DHT22;2286;51.570;7.090;2023-12-28T08:09:58;10.40;1.00
4548;DHT22;2286;51.570;7.090;2023-12-28T08:12:25;10.40;1.00
4548;DHT22;2286;51.570;7.090;2023-12-28T08:14:53;10.40;1.00
4548;DHT22;2286;51.570;7.090;2023-12-28T08:17:20;10.40;1.00
4548;DHT22;2286;51.570;7.090;2023-12-28T08:19:47;10.40;1.00
4548;DHT22;2286;51.570;7.090;2023-12-28T08:22:14;10.50;1.00
4548;DHT22;2286;51.570;7.090;2023-12-28T08:24:43;10.50;1.00
4548;DHT22;2286;51.570;7.090;2023-12-28T08:27:10;10.50;1.00
4548;DHT22;2286;51.570;7.090;2023-12-28T08:29:37;10.50;1.00
4548;DHT22;2286;51.570;7.090;2023-12-28T08:32:04;10.50;1.00
4548;DHT22;2286;51.570;7.090;2023-12-28T08:34:32;10.50;1.00
4548;DHT22;2286;51.570;7.090;2023-12-28T08:36:59;10.50;1.00
4548;DHT22;2286;51.570;7.090;2023-12-28T08:39:26;10.60;1.00
4548;DHT22;2286;51.570;7.090;2023-12-28T08:41:54;10.60;1.00
4548;DHT22;2286;51.570;7.090;2023-12-28T08:44:21;10.60;1.00
4548;DHT22;2286;51.570;7.090;2023-12-28T08:46:48;10.60;1.00
4548;DHT22;2286;51.570;7.090;2023-12-28T08:49:15;10.60;1.00
4548;DHT22;2286;51.570;7.090;2023-12-28T08:51:42;10.60;1.00
4548;DHT22;2286;51.570;7.090;2023-12-28T08:54:09;10.60;1.00
4548;DHT22;2286;51.570;7.090;2023-12-28T08:56:36;10.60;1.00
4548;DHT22;2286;51.570;7.090;2023-12-28T08:59:04;10.70;1.00
4548;DHT22;2286;51.570;7.090;2023-12-28T09:01:31;10.70;1.00
4548;DHT22;2286;51.570;7.090;2023-12-28T09:03:59;10.80;1.00
4548;DHT22;2286;51.570;7.090;2023-12-28T09:06:26;10.80;1.00
4548;DHT22;2286;51.570;7.090;2023-12-28T09:08:53;10.80;1.00
4548;DHT22;2286;51.570;7.090;2023-12-28T09:11:20;10.80;1.00
4548;DHT22;2286;51.570;7.090;2023-12-28T09:13:48;10.80;1.00
4548;DHT22;2286;51.570;7.090;2023-12-28T09:16:16;10.80;1.00
4548;DHT22;2286;51.570;7.090;2023-12-28T09:18:43;10.80;1.00
4548;DHT22;2286;51.570;7.090;2023-12-28T09:21:10;10.80;1.00
4548;DHT22;2286;51.570;7.090;2023-12-28T09:23:37;10.80;1.00
4548;DHT22;2286;51.570;7.090;2023-12-28T09:26:06;10.80;1.00
4548;DHT22;2286;51.570;7.090;2023-12-28T09:28:34;10.80;1.00
4548;DHT22;2286;51.570;7.090;2023-12-28T09:31:01;10.90;1.00
4548;DHT22;2286;51.570;7.090;2023-12-28T09:33:30;10.90;1.00
4548;DHT22;2286;51.570;7.090;2023-12-28T09:35:57;10.90;1.00
4548;DHT22;2286;51.570;7.090;2023-12-28T09:38:24;11.00;1.00
4548;DHT22;2286;51.570;7.090;2023-12-28T09:40:54;11.00;1.00
4548;DHT22;2286;51.570;7.090;2023-12-28T09:43:23;11.10;1.00
4548;DHT22;2286;51.570;7.090;2023-12-28T09:45:51;11.10;99.90
4548;DHT22;2286;51.570;7.090;2023-12-28T09:48:19;11.10;99.90
4548;DHT22;2286;51.570;7.090;2023-12-28T09:50:51;11.10;99.90
4548;DHT22;2286;51.570;7.090;2023-12-28T09:53:20;11.10;99.90
4548;DHT22;2286;51.570;7.090;2023-12-28T09:55:48;11.10;99.90
4548;DHT22;2286;51.570;7.090;2023-12-28T09:58:17;11.10;99.90
4548;DHT22;2286;51.570;7.090;2023-12-28T10:00:46;11.10;99.90
4548;DHT22;2286;51.570;7.090;2023-12-28T10:03:13;11.10;99.90
4548;DHT22;2286;51.570;7.090;2023-12-28T10:05:41;11.10;99.90
4548;DHT22;2286;51.570;7.090;2023-12-28T10:08:11;11.10;99.90
4548;DHT22;2286;51.570;7.090;2023-12-28T10:10:38;11.10;99.90
4548;DHT22;2286;51.570;7.090;2023-12-28T10:13:06;11.10;99.90
4548;DHT22;2286;51.570;7.090;2023-12-28T10:15:33;11.10;99.90
4548;DHT22;2286;51.570;7.090;2023-12-28T10:18:00;11.10;99.90
4548;DHT22;2286;51.570;7.090;2023-12-28T10:20:28;11.10;99.90
4548;DHT22;2286;51.570;7.090;2023-12-28T10:22:55;11.10;99.90
4548;DHT22;2286;51.570;7.090;2023-12-28T10:25:24;11.10;99.90
4548;DHT22;2286;51.570;7.090;2023-12-28T10:27:52;11.00;99.90
4548;DHT22;2286;51.570;7.090;2023-12-28T10:30:20;11.00;99.90
4548;DHT22;2286;51.570;7.090;2023-12-28T10:32:47;11.00;99.90
4548;DHT22;2286;51.570;7.090;2023-12-28T10:35:15;11.00;99.90
4548;DHT22;2286;51.570;7.090;2023-12-28T10:37:42;11.00;99.90
4548;DHT22;2286;51.570;7.090;2023-12-28T10:40:13;11.00;99.90
4548;DHT22;2286;51.570;7.090;2023-12-28T10:42:49;11.00;99.90
4548;DHT22;2286;51.570;7.090;2023-12-28T10:45:18;11.00;99.90
4548;DHT22;2286;51.570;7.090;2023-12-28T10:47:54;11.00;99.90
4548;DHT22;2286;51.570;7.090;2023-12-28T10:50:23;11.00;99.90
4548;DHT22;2286;51.570;7.090;2023-12-28T10:53:03;11.10;99.90
4548;DHT22;2286;51.570;7.090;2023-12-28T10:55:40;11.10;99.90
4548;DHT22;2286;51.570;7.090;2023-12-28T10:58:16;11.10;99.90
4548;DHT22;2286;51.570;7.090;2023-12-28T11:00:50;11.20;99.90
4548;DHT22;2286;51.570;7.090;2023-12-28T11:03:23;11.20;99.90
4548;DHT22;2286;51.570;7.090;2023-12-28T11:05:52;11.30;99.90
4548;DHT22;2286;51.570;7.090;2023-12-28T11:08:21;11.40;99.90
4548;DHT22;2286;51.570;7.090;2023-12-28T11:10:50;11.40;99.90
4548;DHT22;2286;51.570;7.090;2023-12-28T11:13:20;11.50;99.90
4548;DHT22;2286;51.570;7.090;2023-12-28T11:15:48;11.50;99.90
4548;DHT22;2286;51.570;7.090;2023-12-28T11:18:16;11.50;99.90
4548;DHT22;2286;51.570;7.090;2023-12-28T11:20:44;11.50;99.90
4548;DHT22;2286;51.570;7.090;2023-12-28T11:23:12;11.50;99.90
4548;DHT22;2286;51.570;7.090;2023-12-28T11:25:39;11.50;99.90
4548;DHT22;2286;51.570;7.090;2023-12-28T11:28:10;11.50;99.90
4548;DHT22;2286;51.570;7.090;2023-12-28T11:30:41;11.50;99.90
4548;DHT22;2286;51.570;7.090;2023-12-28T11:33:10;11.50;99.90
4548;DHT22;2286;51.570;7.090;2023-12-28T11:35:38;11.50;99.90
4548;DHT22;2286;51.570;7.090;2023-12-28T11:38:08;11.50;99.90
4548;DHT22;2286;51.570;7.090;2023-12-28T11:40:42;11.50;99.90
4548;DHT22;2286;51.570;7.090;2023-12-28T11:43:18;11.50;99.90
4548;DHT22;2286;51.570;7.090;2023-12-28T11:45:51;11.60;99.90
4548;DHT22;2286;51.570;7.090;2023-12-28T11:48:24;11.70;99.90
4548;DHT22;2286;51.570;7.090;2023-12-28T11:50:56;11.70;99.90
4548;DHT22;2286;51.570;7.090;2023-12-28T11:53:24;11.80;99.90
4548;DHT22;2286;51.570;7.090;2023-12-28T11:55:51;11.90;99.90
4548;DHT22;2286;51.570;7.090;2023-12-28T11:58:19;11.90;99.90
4548;DHT22;2286;51.570;7.090;2023-12-28T12:00:47;11.90;95.90
4548;DHT22;2286;51.570;7.090;2023-12-28T12:03:16;12.00;82.20
4548;DHT22;2286;51.570;7.090;2023-12-28T12:05:42;12.10;57.80
4548;DHT22;2286;51.570;7.090;2023-12-28T12:08:10;12.20;13.80
4548;DHT22;2286;51.570;7.090;2023-12-28T12:10:40;12.20;1.00
4548;DHT22;2286;51.570;7.090;2023-12-28T12:13:07;12.10;1.00
4548;DHT22;2286;51.570;7.090;2023-12-28T12:15:34;12.10;16.30
4548;DHT22;2286;51.570;7.090;2023-12-28T12:18:02;12.00;27.70
4548;DHT22;2286;51.570;7.090;2023-12-28T12:20:32;12.00;43.50
4548;DHT22;2286;51.570;7.090;2023-12-28T12:23:00;11.90;59.90
4548;DHT22;2286;51.570;7.090;2023-12-28T12:25:29;11.90;59.00
4548;DHT22;2286;51.570;7.090;2023-12-28T12:27:56;11.90;41.50
4548;DHT22;2286;51.570;7.090;2023-12-28T12:30:23;11.90;50.90
4548;DHT22;2286;51.570;7.090;2023-12-28T12:32:50;12.00;20.70
4548;DHT22;2286;51.570;7.090;2023-12-28T12:35:17;12.10;1.00
4548;DHT22;2286;51.570;7.090;2023-12-28T12:37:48;12.10;1.00
4548;DHT22;2286;51.570;7.090;2023-12-28T12:40:17;12.20;1.00
4548;DHT22;2286;51.570;7.090;2023-12-28T12:42:52;12.20;1.00
4548;DHT22;2286;51.570;7.090;2023-12-28T12:45:20;12.30;21.10
4548;DHT22;2286;51.570;7.090;2023-12-28T12:47:48;12.30;1.00
4548;DHT22;2286;51.570;7.090;2023-12-28T12:50:16;12.30;1.00
4548;DHT22;2286;51.570;7.090;2023-12-28T12:52:43;12.20;1.00
4548;DHT22;2286;51.570;7.090;2023-12-28T12:55:13;12.20;1.00
4548;DHT22;2286;51.570;7.090;2023-12-28T12:57:40;12.10;1.00
4548;DHT22;2286;51.570;7.090;2023-12-28T13:00:09;12.00;1.00
4548;DHT22;2286;51.570;7.090;2023-12-28T13:02:37;12.00;15.50
4548;DHT22;2286;51.570;7.090;2023-12-28T13:05:05;11.90;9.20
4548;DHT22;2286;51.570;7.090;2023-12-28T13:07:32;11.90;27.20
4548;DHT22;2286;51.570;7.090;2023-12-28T13:09:59;11.80;1.00
4548;DHT22;2286;51.570;7.090;2023-12-28T13:12:28;11.80;13.00
4548;DHT22;2286;51.570;7.090;2023-12-28T13:14:55;11.90;1.00
4548;DHT22;2286;51.570;7.090;2023-12-28T13:17:22;11.90;1.00
4548;DHT22;2286;51.570;7.090;2023-12-28T13:19:49;11.80;1.00
4548;DHT22;2286;51.570;7.090;2023-12-28T13:22:16;11.90;1.00
4548;DHT22;2286;51.570;7.090;2023-12-28T13:24:43;11.90;1.00
4548;DHT22;2286;51.570;7.090;2023-12-28T13:27:10;11.90;1.00
4548;DHT22;2286;51.570;7.090;2023-12-28T13:29:39;11.90;26.60
4548;DHT22;2286;51.570;7.090;2023-12-28T13:32:06;11.90;1.80
4548;DHT22;2286;51.570;7.090;2023-12-28T13:34:33;11.90;12.40
4548;DHT22;2286;51.570;7.090;2023-12-28T13:37:00;11.90;1.00
4548;DHT22;2286;51.570;7.090;2023-12-28T13:39:28;11.90;1.10
4548;DHT22;2286;51.570;7.090;2023-12-28T13:41:55;11.90;1.00
4548;DHT22;2286;51.570;7.090;2023-12-28T13:44:22;11.90;1.00
4548;DHT22;2286;51.570;7.090;2023-12-28T13:46:51;11.90;1.00
4548;DHT22;2286;51.570;7.090;2023-12-28T13:49:19;11.90;1.00
4548;DHT22;2286;51.570;7.090;2023-12-28T13:51:46;11.80;1.00
4548;DHT22;2286;51.570;7.090;2023-12-28T13:54:13;11.80;1.00
4548;DHT22;2286;51.570;7.090;2023-12-28T13:56:40;11.80;1.00
4548;DHT22;2286;51.570;7.090;2023-12-28T13:59:07;11.80;1.00
4548;DHT22;2286;51.570;7.090;2023-12-28T14:01:34;11.80;1.00
4548;DHT22;2286;51.570;7.090;2023-12-28T14:04:04;11.70;1.00
4548;DHT22;2286;51.570;7.090;2023-12-28T14:06:31;11.80;1.00
4548;DHT22;2286;51.570;7.090;2023-12-28T14:08:58;11.70;1.00
4548;DHT22;2286;51.570;7.090;2023-12-28T14:11:25;11.70;1.00
4548;DHT22;2286;51.570;7.090;2023-12-28T14:13:52;11.70;1.00
4548;DHT22;2286;51.570;7.090;2023-12-28T14:16:19;11.70;1.00
4548;DHT22;2286;51.570;7.090;2023-12-28T14:18:46;11.60;1.00
4548;DHT22;2286;51.570;7.090;2023-12-28T14:21:16;11.70;1.00
4548;DHT22;2286;51.570;7.090;2023-12-28T14:23:43;11.60;1.00
4548;DHT22;2286;51.570;7.090;2023-12-28T14:26:12;11.60;1.00
4548;DHT22;2286;51.570;7.090;2023-12-28T14:28:41;11.60;1.00
4548;DHT22;2286;51.570;7.090;2023-12-28T14:31:09;11.60;20.30
4548;DHT22;2286;51.570;7.090;2023-12-28T14:33:36;11.50;6.90
4548;DHT22;2286;51.570;7.090;2023-12-28T14:36:07;11.50;32.80
4548;DHT22;2286;51.570;7.090;2023-12-28T14:38:38;11.50;91.80
4548;DHT22;2286;51.570;7.090;2023-12-28T14:41:05;11.50;27.40
4548;DHT22;2286;51.570;7.090;2023-12-28T14:43:32;11.50;65.30
4548;DHT22;2286;51.570;7.090;2023-12-28T14:45:59;11.50;95.20
4548;DHT22;2286;51.570;7.090;2023-12-28T14:48:26;11.40;63.10
4548;DHT22;2286;51.570;7.090;2023-12-28T14:50:53;11.40;59.30
4548;DHT22;2286;51.570;7.090;2023-12-28T14:53:20;11.40;65.40
4548;DHT22;2286;51.570;7.090;2023-12-28T14:55:50;11.40;39.70
4548;DHT22;2286;51.570;7.090;2023-12-28T14:58:17;11.40;28.80
4548;DHT22;2286;51.570;7.090;2023-12-28T15:00:44;11.40;17.30
4548;DHT22;2286;51.570;7.090;2023-12-28T15:03:12;11.40;1.00
4548;DHT22;2286;51.570;7.090;2023-12-28T15:05:39;11.40;1.00
4548;DHT22;2286;51.570;7.090;2023-12-28T15:08:06;11.40;1.00
4548;DHT22;2286;51.570;7.090;2023-12-28T15:10:33;11.40;14.90
4548;DHT22;2286;51.570;7.090;2023-12-28T15:13:03;11.40;1.00
4548;DHT22;2286;51.570;7.090;2023-12-28T15:15:31;11.40;1.00
4548;DHT22;2286;51.570;7.090;2023-12-28T15:17:59;11.40;1.00
4548;DHT22;2286;51.570;7.090;2023-12-28T15:20:27;11.30;7.30
4548;DHT22;2286;51.570;7.090;2023-12-28T15:22:54;11.30;8.20
4548;DHT22;2286;51.570;7.090;2023-12-28T15:25:21;11.30;1.00
4548;DHT22;2286;51.570;7.090;2023-12-28T15:27:48;11.20;1.00
4548;DHT22;2286;51.570;7.090;2023-12-28T15:30:17;11.20;1.00
4548;DHT22;2286;51.570;7.090;2023-12-28T15:32:44;11.10;10.90
4548;DHT22;2286;51.570;7.090;2023-12-28T15:35:13;11.10;3.80
4548;DHT22;2286;51.570;7.090;2023-12-28T15:37:40;11.00;45.30
4548;DHT22;2286;51.570;7.090;2023-12-28T15:40:08;11.00;59.70
4548;DHT22;2286;51.570;7.090;2023-12-28T15:42:35;11.00;80.50
4548;DHT22;2286;51.570;7.090;2023-12-28T15:45:02;11.00;96.10
4548;DHT22;2286;51.570;7.090;2023-12-28T15:47:30;11.00;46.50
4548;DHT22;2286;51.570;7.090;2023-12-28T15:49:58;11.10;71.30
4548;DHT22;2286;51.570;7.090;2023-12-28T15:52:26;11.10;51.50
4548;DHT22;2286;51.570;7.090;2023-12-28T15:54:53;11.10;1.30
4548;DHT22;2286;51.570;7.090;2023-12-28T15:57:20;11.10;9.70
4548;DHT22;2286;51.570;7.090;2023-12-28T15:59:47;11.10;11.00
4548;DHT22;2286;51.570;7.090;2023-12-28T16:02:14;11.10;22.20
4548;DHT22;2286;51.570;7.090;2023-12-28T16:04:43;11.00;56.80
4548;DHT22;2286;51.570;7.090;2023-12-28T16:07:10;11.00;47.30
4548;DHT22;2286;51.570;7.090;2023-12-28T16:09:37;11.00;17.70
4548;DHT22;2286;51.570;7.090;2023-12-28T16:12:04;11.10;23.00
4548;DHT22;2286;51.570;7.090;2023-12-28T16:14:34;11.00;26.50
4548;DHT22;2286;51.570;7.090;2023-12-28T16:17:02;11.00;46.60